• Join FlightAware (Why Join?)
  • Login
  • US Flag 
11:30AM EST


 

Airport Tracker/Info


-or-


 

Live Flight TrackerFlight Track Log ✈ EJA365 ✈ 19-Apr-2013 ✈ KONX - KROC

Flight Track Log - Related Links

Times and Time Zones

All times are in EDT time to prevent confusion due to time zone crossing. See the EJA365 flight status page for this flight to view local times or setup timezone preferences in your user account.

Time Position Orientation Groundspeed Altitude Reporting Facility
EDT Latitude Longitude Course Direction KTS MPH feet Rate Location/Type
02:04PM 36.3889 -76.0306 299° West 151 174 1,100  Level Washington Center
02:05PM 36.4094 -76.0772 299° West 200 230 3,000 2,040 Climbing Washington Center
02:05PM 36.4219 -76.0953 311° West 204 235 3,500 2,220 Climbing Washington Center
02:06PM 36.4719 -76.1447 322° Northwest 248 285 6,000 1,260 Climbing Washington Center
02:07PM 36.5300 -76.2019 322° Northwest 244 281 6,100  Climbing Washington Center
02:08PM 36.5819 -76.2542 321° Northwest 246 283 6,000 1,140 Descending Washington Center
02:10PM 36.6753 -76.3508 320° Northwest 291 335 9,200 2,220 Climbing Washington Center
02:10PM 36.6897 -76.3689 315° West 291 335 10,300 2,400 Climbing Washington Center
02:11PM 36.7394 -76.4186 321° Northwest 329 379 11,600 1,800 Climbing Washington Center
02:12PM 36.8014 -76.4919 317° Northwest 329 379 13,500 1,200 Climbing Washington Center
02:13PM 36.8739 -76.5758 317° Northwest 344 396 14,000 300 Climbing Washington Center
02:14PM 36.9483 -76.6628 317° Northwest 355 409 14,100 -60 Climbing Washington Center
02:15PM 37.0225 -76.7494 317° Northwest 355 409 13,900 -60 Descending Washington Center
02:16PM 37.0947 -76.8364 316° Northwest 355 409 14,000 1,140 Climbing Washington Center
02:17PM 37.1667 -76.9211 317° Northwest 355 409 16,200 2,640 Climbing Washington Center
02:18PM 37.2492 -77.0217 316° Northwest 360 414 19,300 1,860 Climbing Washington Center
02:19PM 37.3292 -77.1172 316° Northwest 388 447 20,000 300 Climbing Washington Center
02:20PM 37.4094 -77.2128 317° Northwest 397 457 20,000  Level Washington Center
02:21PM 37.4894 -77.3008 319° Northwest 392 451 20,000 600 Level Washington Center
02:22PM 37.5997 -77.3322 347° North 383 441 21,300 1,860 Climbing Washington Center
02:23PM 37.7183 -77.3428 356° North 404 465 23,700 2,340 Climbing Washington Center
02:24PM 37.8411 -77.3561 355° North 412 474 26,000 2,340 Climbing Washington Center
02:25PM 37.9642 -77.3669 356° North 425 489 28,400 2,040 Climbing Washington Center
02:26PM 38.0722 -77.3828 353° North 432 497 30,100 1,260 Climbing Washington Center
02:27PM 38.2014 -77.3939 356° North 442 509 31,000 420 Climbing Washington Center
02:28PM 38.3347 -77.4075 355° North 464 534 31,000  Level Washington Center
02:29PM 38.4678 -77.4214 355° North 476 548 31,000  Level Washington Center
02:30PM 38.6011 -77.4353 355° North 476 548 31,000  Level Washington Center
02:31PM 38.7322 -77.4467 356° North 476 548 31,000  Level Washington Center
02:32PM 38.8614 -77.4606 355° North 471 542 31,000  Level Washington Center
02:34PM 39.1250 -77.4625 360° North 497 572 31,000  Level New York Center
02:34PM 39.2606 -77.4617 360° North 491 565 31,000  Level New York Center
02:35PM 39.3981 -77.4614 360° North 491 565 31,000  Level New York Center
02:36PM 39.5319 -77.4578 North 485 558 31,000  Level New York Center
02:37PM 39.6653 -77.4569 360° North 480 552 31,000  Level New York Center
02:39PM 39.7992 -77.4536 North 480 552 31,000 -240 Level New York Center
02:39PM 39.9306 -77.4497 North 475 547 30,600 -660 Descending New York Center
02:41PM 40.0644 -77.4464 North 480 552 29,700 -840 Descending New York Center
02:41PM 40.2061 -77.4464 360° North 485 558 29,000 -360 Descending New York Center
02:42PM 40.3419 -77.4431 North 490 564 29,000  Level New York Center
02:43PM 40.4753 -77.4422 360° North 490 564 29,000  Level New York Center
02:45PM 40.6108 -77.4392 North 485 558 29,000  Level New York Center
02:46PM 40.7508 -77.4361 North 485 558 29,000 -360 Level New York Center
02:46PM 40.8864 -77.4358 360° North 485 558 28,300 -1,020 Descending New York Center
02:47PM 41.0281 -77.4331 North 490 564 27,100 -1,200 Descending New York Center
02:48PM 41.1658 -77.4300 North 495 570 25,900 -1,080 Descending New York Center
02:49PM 41.2994 -77.4267 North 495 570 25,000 -900 Descending New York Center
02:51PM 41.4203 -77.4275 360° North 490 564 24,100 -960 Descending New York Center
02:52PM 41.6267 -77.4217 North 472 543 22,600 -840 Descending Cleveland Center
02:53PM 41.7500 -77.4325 356° North 461 531 22,000 -300 Descending Cleveland Center
02:54PM 41.8714 -77.4514 353° North 450 518 22,000  Level Cleveland Center
02:55PM 41.9908 -77.4736 352° North 438 504 22,000 -840 Level Cleveland Center
02:56PM 42.1122 -77.4928 353° North 433 498 20,400 -1,860 Descending Cleveland Center
02:57PM 42.2256 -77.5128 353° North 426 490 18,300 -2,340 Descending Cleveland Center
02:57PM 42.2736 -77.5244 350° North 383 441 17,300 -2,220 Descending Cleveland Center
02:58PM 42.3386 -77.5353 353° North 410 472 16,100 -2,220 Descending Cleveland Center
02:59PM 42.4203 -77.5511 352° North 404 465 14,400 -2,220 Descending Cleveland Center
02:59PM 42.4456 -77.5528 357° North 404 465 13,900 -2,100 Descending Cleveland Center
03:00PM 42.5258 -77.5178 18° North 396 456 12,300 -2,100 Descending Cleveland Center
03:00PM 42.5525 -77.5053 19° North 376 433 11,800 -2,100 Descending Cleveland Center
03:01PM 42.6242 -77.4594 25° Northeast 375 432 10,200 -1,740 Descending Cleveland Center
03:01PM 42.6597 -77.4547 North 376 433 10,100 -2,100 Descending Cleveland Center
03:02PM 42.7150 -77.4267 20° North 319 367 8,100 -2,340 Descending Cleveland Center
03:02PM 42.7378 -77.4169 17° North 356 410 7,800 -1,920 Descending Cleveland Center
03:03PM 42.8025 -77.4250 355° North 302 348 6,200 -2,100 Descending Cleveland Center
03:03PM 42.8281 -77.4378 340° North 306 352 5,700 -1,380 Descending Cleveland Center
03:04PM 42.8936 -77.4686 341° North 294 338 4,700 -1,260 Descending Cleveland Center
03:05PM 42.9564 -77.4881 347° North 277 319 3,600 -1,380 Descending Cleveland Center
03:05PM 42.9817 -77.4925 353° North 282 325 3,100 -1,140 Descending Cleveland Center
03:06PM 43.0256 -77.5017 351° North 240 276 2,500 -600 Descending Cleveland Center
03:06PM 43.0444 -77.5036 356° North 259 298 2,500  Level Cleveland Center
03:07PM 43.0886 -77.5128 351° North 187 215 2,500  Level Cleveland Center
03:07PM 43.0989 -77.5153 350° North 222 255 2,500 -300 Level Cleveland Center
03:08PM 43.1208 -77.5511 310° West 144 166 2,200 -540 Descending Cleveland Center
03:09PM 43.1239 -77.5908 276° West 91 105 1,600 -600 Descending Cleveland Center
03:10PM 43.1228 -77.6306 268° West 97 112 1,100 -540 Descending Cleveland Center